sensor_id;sensor_type;location;lat;lon;timestamp;temperature;humidity
32187;DHT22;18686;53.084;8.872;2023-06-10T00:00:01;15.00;99.90
32187;DHT22;18686;53.084;8.872;2023-06-10T00:02:39;14.90;99.90
32187;DHT22;18686;53.084;8.872;2023-06-10T00:05:27;14.90;99.90
32187;DHT22;18686;53.084;8.872;2023-06-10T00:08:15;14.80;99.90
32187;DHT22;18686;53.084;8.872;2023-06-10T00:10:46;14.80;99.90
32187;DHT22;18686;53.084;8.872;2023-06-10T00:13:33;14.70;99.90
32187;DHT22;18686;53.084;8.872;2023-06-10T00:16:01;14.70;99.90
32187;DHT22;18686;53.084;8.872;2023-06-10T00:18:31;14.70;99.90
32187;DHT22;18686;53.084;8.872;2023-06-10T00:20:59;14.70;99.90
32187;DHT22;18686;53.084;8.872;2023-06-10T00:23:32;14.70;99.90
32187;DHT22;18686;53.084;8.872;2023-06-10T00:26:23;14.60;99.90
32187;DHT22;18686;53.084;8.872;2023-06-10T00:28:51;14.60;99.90
32187;DHT22;18686;53.084;8.872;2023-06-10T00:31:20;14.60;99.90
32187;DHT22;18686;53.084;8.872;2023-06-10T00:33:50;14.60;99.90
32187;DHT22;18686;53.084;8.872;2023-06-10T00:36:18;14.50;99.90
32187;DHT22;18686;53.084;8.872;2023-06-10T00:38:47;14.50;99.90
32187;DHT22;18686;53.084;8.872;2023-06-10T00:41:15;14.40;99.90
32187;DHT22;18686;53.084;8.872;2023-06-10T00:44:02;14.40;99.90
32187;DHT22;18686;53.084;8.872;2023-06-10T00:46:31;14.40;99.90
32187;DHT22;18686;53.084;8.872;2023-06-10T00:49:01;14.40;99.90
32187;DHT22;18686;53.084;8.872;2023-06-10T00:51:30;14.30;99.90
32187;DHT22;18686;53.084;8.872;2023-06-10T00:53:58;14.30;99.90
32187;DHT22;18686;53.084;8.872;2023-06-10T00:56:27;14.30;99.90
32187;DHT22;18686;53.084;8.872;2023-06-10T00:59:14;14.30;99.90
32187;DHT22;18686;53.084;8.872;2023-06-10T01:02:01;14.30;99.90
32187;DHT22;18686;53.084;8.872;2023-06-10T01:04:50;14.20;99.90
32187;DHT22;18686;53.084;8.872;2023-06-10T01:07:24;14.20;99.90
32187;DHT22;18686;53.084;8.872;2023-06-10T01:09:58;14.10;99.90
32187;DHT22;18686;53.084;8.872;2023-06-10T01:12:50;14.10;99.90
32187;DHT22;18686;53.084;8.872;2023-06-10T01:15:21;14.00;99.90
32187;DHT22;18686;53.084;8.872;2023-06-10T01:17:55;14.00;99.90
32187;DHT22;18686;53.084;8.872;2023-06-10T01:20:44;14.00;99.90
32187;DHT22;18686;53.084;8.872;2023-06-10T01:23:33;13.90;99.90
32187;DHT22;18686;53.084;8.872;2023-06-10T01:26:04;13.90;99.90
32187;DHT22;18686;53.084;8.872;2023-06-10T01:28:44;13.80;99.90
32187;DHT22;18686;53.084;8.872;2023-06-10T01:31:20;13.80;99.90
32187;DHT22;18686;53.084;8.872;2023-06-10T01:33:53;13.80;99.90
32187;DHT22;18686;53.084;8.872;2023-06-10T01:36:40;13.70;99.90
32187;DHT22;18686;53.084;8.872;2023-06-10T01:39:29;13.70;99.90
32187;DHT22;18686;53.084;8.872;2023-06-10T01:42:16;13.60;99.90
32187;DHT22;18686;53.084;8.872;2023-06-10T01:44:45;13.60;99.90
32187;DHT22;18686;53.084;8.872;2023-06-10T01:47:13;13.60;99.90
32187;DHT22;18686;53.084;8.872;2023-06-10T01:50:00;13.60;99.90
32187;DHT22;18686;53.084;8.872;2023-06-10T01:52:46;13.60;99.90
32187;DHT22;18686;53.084;8.872;2023-06-10T01:55:35;13.50;99.90
32187;DHT22;18686;53.084;8.872;2023-06-10T01:58:21;13.50;99.90
32187;DHT22;18686;53.084;8.872;2023-06-10T02:01:09;13.50;99.90
32187;DHT22;18686;53.084;8.872;2023-06-10T02:03:55;13.40;99.90
32187;DHT22;18686;53.084;8.872;2023-06-10T02:06:24;13.30;99.90
32187;DHT22;18686;53.084;8.872;2023-06-10T02:08:53;13.30;99.90
32187;DHT22;18686;53.084;8.872;2023-06-10T02:11:22;13.30;99.90
32187;DHT22;18686;53.084;8.872;2023-06-10T02:13:51;13.20;99.90
32187;DHT22;18686;53.084;8.872;2023-06-10T02:16:38;13.20;99.90
32187;DHT22;18686;53.084;8.872;2023-06-10T02:19:25;13.20;99.90
32187;DHT22;18686;53.084;8.872;2023-06-10T02:21:54;13.10;99.90
32187;DHT22;18686;53.084;8.872;2023-06-10T02:24:40;13.10;99.90
32187;DHT22;18686;53.084;8.872;2023-06-10T02:27:10;13.00;99.90
32187;DHT22;18686;53.084;8.872;2023-06-10T02:29:39;13.00;99.90
32187;DHT22;18686;53.084;8.872;2023-06-10T02:32:08;12.90;99.90
32187;DHT22;18686;53.084;8.872;2023-06-10T02:34:56;12.90;99.90
32187;DHT22;18686;53.084;8.872;2023-06-10T02:37:43;12.80;99.90
32187;DHT22;18686;53.084;8.872;2023-06-10T02:40:30;12.80;99.90
32187;DHT22;18686;53.084;8.872;2023-06-10T02:42:59;12.90;99.90
32187;DHT22;18686;53.084;8.872;2023-06-10T02:45:28;12.90;99.90
32187;DHT22;18686;53.084;8.872;2023-06-10T02:47:58;13.00;99.90
32187;DHT22;18686;53.084;8.872;2023-06-10T02:50:45;13.00;99.90
32187;DHT22;18686;53.084;8.872;2023-06-10T02:53:31;13.20;99.90
32187;DHT22;18686;53.084;8.872;2023-06-10T02:56:05;13.20;99.90
32187;DHT22;18686;53.084;8.872;2023-06-10T02:58:38;13.40;99.90
32187;DHT22;18686;53.084;8.872;2023-06-10T03:01:07;13.50;99.90
32187;DHT22;18686;53.084;8.872;2023-06-10T03:03:55;13.60;99.90
32187;DHT22;18686;53.084;8.872;2023-06-10T03:06:24;13.70;99.90
32187;DHT22;18686;53.084;8.872;2023-06-10T03:09:11;13.70;99.90
32187;DHT22;18686;53.084;8.872;2023-06-10T03:11:42;13.80;99.90
32187;DHT22;18686;53.084;8.872;2023-06-10T03:14:30;13.90;99.90
32187;DHT22;18686;53.084;8.872;2023-06-10T03:17:17;13.90;99.90
32187;DHT22;18686;53.084;8.872;2023-06-10T03:20:04;14.00;99.90
32187;DHT22;18686;53.084;8.872;2023-06-10T03:22:51;14.10;99.90
32187;DHT22;18686;53.084;8.872;2023-06-10T03:25:37;14.20;99.90
32187;DHT22;18686;53.084;8.872;2023-06-10T03:28:06;14.20;99.90
32187;DHT22;18686;53.084;8.872;2023-06-10T03:30:54;14.30;99.90
32187;DHT22;18686;53.084;8.872;2023-06-10T03:33:24;14.30;99.90
32187;DHT22;18686;53.084;8.872;2023-06-10T03:35:53;14.40;99.90
32187;DHT22;18686;53.084;8.872;2023-06-10T03:38:23;14.50;99.90
32187;DHT22;18686;53.084;8.872;2023-06-10T03:41:10;14.60;99.90
32187;DHT22;18686;53.084;8.872;2023-06-10T03:43:56;14.70;99.90
32187;DHT22;18686;53.084;8.872;2023-06-10T03:46:44;14.70;99.90
32187;DHT22;18686;53.084;8.872;2023-06-10T03:49:13;14.80;99.90
32187;DHT22;18686;53.084;8.872;2023-06-10T03:51:42;14.80;99.90
32187;DHT22;18686;53.084;8.872;2023-06-10T03:54:29;14.80;99.90
32187;DHT22;18686;53.084;8.872;2023-06-10T03:57:17;14.80;99.90
32187;DHT22;18686;53.084;8.872;2023-06-10T03:59:45;14.90;99.90
32187;DHT22;18686;53.084;8.872;2023-06-10T04:02:15;14.90;99.90
32187;DHT22;18686;53.084;8.872;2023-06-10T04:04:43;14.90;99.90
32187;DHT22;18686;53.084;8.872;2023-06-10T04:07:13;14.90;99.90
32187;DHT22;18686;53.084;8.872;2023-06-10T04:09:42;15.00;99.90
32187;DHT22;18686;53.084;8.872;2023-06-10T04:12:29;15.00;99.90
32187;DHT22;18686;53.084;8.872;2023-06-10T04:15:15;15.00;99.90
32187;DHT22;18686;53.084;8.872;2023-06-10T04:17:45;15.00;99.90
32187;DHT22;18686;53.084;8.872;2023-06-10T04:20:14;15.10;99.90
32187;DHT22;18686;53.084;8.872;2023-06-10T04:22:46;15.10;99.90
32187;DHT22;18686;53.084;8.872;2023-06-10T04:25:32;15.10;99.90
32187;DHT22;18686;53.084;8.872;2023-06-10T04:28:19;15.20;99.90
32187;DHT22;18686;53.084;8.872;2023-06-10T04:30:48;15.20;99.90
32187;DHT22;18686;53.084;8.872;2023-06-10T04:33:18;15.20;99.90
32187;DHT22;18686;53.084;8.872;2023-06-10T04:35:46;15.20;99.90
32187;DHT22;18686;53.084;8.872;2023-06-10T04:38:15;15.20;99.90
32187;DHT22;18686;53.084;8.872;2023-06-10T04:40:44;15.30;99.90
32187;DHT22;18686;53.084;8.872;2023-06-10T04:43:14;15.30;99.90
32187;DHT22;18686;53.084;8.872;2023-06-10T04:45:44;15.30;99.90
32187;DHT22;18686;53.084;8.872;2023-06-10T04:48:33;15.30;99.90
32187;DHT22;18686;53.084;8.872;2023-06-10T04:51:21;15.30;99.90
32187;DHT22;18686;53.084;8.872;2023-06-10T04:54:08;15.30;99.90
32187;DHT22;18686;53.084;8.872;2023-06-10T04:56:36;15.30;99.90
32187;DHT22;18686;53.084;8.872;2023-06-10T04:59:24;15.30;99.90
32187;DHT22;18686;53.084;8.872;2023-06-10T05:01:53;15.40;99.90
32187;DHT22;18686;53.084;8.872;2023-06-10T05:04:23;15.40;99.90
32187;DHT22;18686;53.084;8.872;2023-06-10T05:07:09;15.50;99.90
32187;DHT22;18686;53.084;8.872;2023-06-10T05:09:56;15.50;99.90
32187;DHT22;18686;53.084;8.872;2023-06-10T05:12:43;15.60;99.90
32187;DHT22;18686;53.084;8.872;2023-06-10T05:15:30;15.70;99.90
32187;DHT22;18686;53.084;8.872;2023-06-10T05:17:58;15.70;99.90
32187;DHT22;18686;53.084;8.872;2023-06-10T05:20:28;15.80;99.90
32187;DHT22;18686;53.084;8.872;2023-06-10T05:22:56;15.90;99.90
32187;DHT22;18686;53.084;8.872;2023-06-10T05:25:26;16.00;99.90
32187;DHT22;18686;53.084;8.872;2023-06-10T05:28:13;16.00;99.90
32187;DHT22;18686;53.084;8.872;2023-06-10T05:31:00;16.10;99.90
32187;DHT22;18686;53.084;8.872;2023-06-10T05:33:28;16.10;99.90
32187;DHT22;18686;53.084;8.872;2023-06-10T05:35:58;16.20;99.90
32187;DHT22;18686;53.084;8.872;2023-06-10T05:38:44;16.20;99.90
32187;DHT22;18686;53.084;8.872;2023-06-10T05:41:12;16.20;99.90
32187;DHT22;18686;53.084;8.872;2023-06-10T05:43:59;16.30;99.90
32187;DHT22;18686;53.084;8.872;2023-06-10T05:46:46;16.40;99.90
32187;DHT22;18686;53.084;8.872;2023-06-10T05:49:33;16.50;99.90
32187;DHT22;18686;53.084;8.872;2023-06-10T05:52:22;16.60;99.90
32187;DHT22;18686;53.084;8.872;2023-06-10T05:54:51;16.70;99.90
32187;DHT22;18686;53.084;8.872;2023-06-10T05:57:20;16.80;99.90
32187;DHT22;18686;53.084;8.872;2023-06-10T06:00:09;16.80;99.90
32187;DHT22;18686;53.084;8.872;2023-06-10T06:02:41;17.00;99.90
32187;DHT22;18686;53.084;8.872;2023-06-10T06:05:28;17.00;99.90
32187;DHT22;18686;53.084;8.872;2023-06-10T06:08:03;17.00;99.90
32187;DHT22;18686;53.084;8.872;2023-06-10T06:10:31;17.10;99.90
32187;DHT22;18686;53.084;8.872;2023-06-10T06:13:18;17.20;99.90
32187;DHT22;18686;53.084;8.872;2023-06-10T06:15:46;17.20;99.90
32187;DHT22;18686;53.084;8.872;2023-06-10T06:18:33;17.10;99.90
32187;DHT22;18686;53.084;8.872;2023-06-10T06:21:19;17.20;99.90
32187;DHT22;18686;53.084;8.872;2023-06-10T06:24:08;17.30;99.90
32187;DHT22;18686;53.084;8.872;2023-06-10T06:26:37;17.40;99.90
32187;DHT22;18686;53.084;8.872;2023-06-10T06:29:05;17.50;99.90
32187;DHT22;18686;53.084;8.872;2023-06-10T06:31:52;17.70;99.90
32187;DHT22;18686;53.084;8.872;2023-06-10T06:34:38;18.00;99.90
32187;DHT22;18686;53.084;8.872;2023-06-10T06:37:25;18.30;99.60
32187;DHT22;18686;53.084;8.872;2023-06-10T06:40:14;18.50;99.00
32187;DHT22;18686;53.084;8.872;2023-06-10T06:43:01;18.80;98.00
32187;DHT22;18686;53.084;8.872;2023-06-10T06:45:48;19.10;97.10
32187;DHT22;18686;53.084;8.872;2023-06-10T06:48:35;19.20;96.30
32187;DHT22;18686;53.084;8.872;2023-06-10T06:51:22;19.40;95.40
32187;DHT22;18686;53.084;8.872;2023-06-10T06:54:09;19.50;95.30
32187;DHT22;18686;53.084;8.872;2023-06-10T06:56:39;19.50;94.40
32187;DHT22;18686;53.084;8.872;2023-06-10T06:59:09;19.60;94.10
32187;DHT22;18686;53.084;8.872;2023-06-10T07:01:40;19.50;93.70
32187;DHT22;18686;53.084;8.872;2023-06-10T07:04:27;19.60;93.90
32187;DHT22;18686;53.084;8.872;2023-06-10T07:06:55;19.80;93.70
32187;DHT22;18686;53.084;8.872;2023-06-10T07:09:42;20.00;93.40
32187;DHT22;18686;53.084;8.872;2023-06-10T07:12:30;20.30;93.00
32187;DHT22;18686;53.084;8.872;2023-06-10T07:15:18;20.60;93.00
32187;DHT22;18686;53.084;8.872;2023-06-10T07:17:46;20.90;92.10
32187;DHT22;18686;53.084;8.872;2023-06-10T07:20:14;21.20;90.80
32187;DHT22;18686;53.084;8.872;2023-06-10T07:22:42;21.40;90.00
32187;DHT22;18686;53.084;8.872;2023-06-10T07:25:11;21.60;87.00
32187;DHT22;18686;53.084;8.872;2023-06-10T07:27:59;21.50;82.20
32187;DHT22;18686;53.084;8.872;2023-06-10T07:30:28;21.80;80.10
32187;DHT22;18686;53.084;8.872;2023-06-10T07:32:56;21.90;82.00
32187;DHT22;18686;53.084;8.872;2023-06-10T07:35:24;22.10;79.00
32187;DHT22;18686;53.084;8.872;2023-06-10T07:37:53;22.30;78.30
32187;DHT22;18686;53.084;8.872;2023-06-10T07:40:21;22.50;77.00
32187;DHT22;18686;53.084;8.872;2023-06-10T07:43:09;22.80;73.30
32187;DHT22;18686;53.084;8.872;2023-06-10T07:45:39;23.00;72.00
32187;DHT22;18686;53.084;8.872;2023-06-10T07:48:08;23.30;69.90
32187;DHT22;18686;53.084;8.872;2023-06-10T07:50:55;23.60;66.90
32187;DHT22;18686;53.084;8.872;2023-06-10T07:53:23;23.70;65.40
32187;DHT22;18686;53.084;8.872;2023-06-10T07:55:51;24.00;64.80
32187;DHT22;18686;53.084;8.872;2023-06-10T07:58:39;24.10;63.40
32187;DHT22;18686;53.084;8.872;2023-06-10T08:01:08;24.40;62.10
32187;DHT22;18686;53.084;8.872;2023-06-10T08:03:54;24.70;60.50
32187;DHT22;18686;53.084;8.872;2023-06-10T08:06:41;24.90;59.50
32187;DHT22;18686;53.084;8.872;2023-06-10T08:09:10;25.20;58.20
32187;DHT22;18686;53.084;8.872;2023-06-10T08:11:38;25.40;57.40
32187;DHT22;18686;53.084;8.872;2023-06-10T08:14:26;25.50;56.80
32187;DHT22;18686;53.084;8.872;2023-06-10T08:16:55;25.70;55.80
32187;DHT22;18686;53.084;8.872;2023-06-10T08:19:23;26.10;54.90
32187;DHT22;18686;53.084;8.872;2023-06-10T08:22:10;26.30;53.90
32187;DHT22;18686;53.084;8.872;2023-06-10T08:24:38;26.60;52.70
32187;DHT22;18686;53.084;8.872;2023-06-10T08:27:25;26.70;52.00
32187;DHT22;18686;53.084;8.872;2023-06-10T08:29:54;27.10;51.40
32187;DHT22;18686;53.084;8.872;2023-06-10T08:32:23;27.30;50.40
32187;DHT22;18686;53.084;8.872;2023-06-10T08:35:10;27.50;49.50
32187;DHT22;18686;53.084;8.872;2023-06-10T08:37:38;27.80;49.30
32187;DHT22;18686;53.084;8.872;2023-06-10T08:40:09;27.90;48.60
32187;DHT22;18686;53.084;8.872;2023-06-10T08:42:40;28.00;48.40
32187;DHT22;18686;53.084;8.872;2023-06-10T08:45:31;28.10;47.80
32187;DHT22;18686;53.084;8.872;2023-06-10T08:47:59;28.40;48.10
32187;DHT22;18686;53.084;8.872;2023-06-10T08:50:29;28.60;47.00
32187;DHT22;18686;53.084;8.872;2023-06-10T08:52:58;28.80;45.90
32187;DHT22;18686;53.084;8.872;2023-06-10T08:55:50;29.10;46.00
32187;DHT22;18686;53.084;8.872;2023-06-10T08:58:37;29.40;45.70
32187;DHT22;18686;53.084;8.872;2023-06-10T09:01:12;29.70;45.60
32187;DHT22;18686;53.084;8.872;2023-06-10T09:03:59;30.00;45.00
32187;DHT22;18686;53.084;8.872;2023-06-10T09:06:47;30.40;44.10
32187;DHT22;18686;53.084;8.872;2023-06-10T09:09:35;30.60;42.50
32187;DHT22;18686;53.084;8.872;2023-06-10T09:12:22;30.70;41.90
32187;DHT22;18686;53.084;8.872;2023-06-10T09:14:50;30.90;41.60
32187;DHT22;18686;53.084;8.872;2023-06-10T09:17:39;31.00;41.30
32187;DHT22;18686;53.084;8.872;2023-06-10T09:20:26;31.30;41.30
32187;DHT22;18686;53.084;8.872;2023-06-10T09:22:55;31.60;40.60
32187;DHT22;18686;53.084;8.872;2023-06-10T09:25:35;31.80;40.00
32187;DHT22;18686;53.084;8.872;2023-06-10T09:28:05;32.10;39.60
32187;DHT22;18686;53.084;8.872;2023-06-10T09:30:40;32.20;38.50
32187;DHT22;18686;53.084;8.872;2023-06-10T09:33:28;31.90;38.50
32187;DHT22;18686;53.084;8.872;2023-06-10T09:35:56;32.20;39.70
32187;DHT22;18686;53.084;8.872;2023-06-10T09:38:49;32.70;39.00
32187;DHT22;18686;53.084;8.872;2023-06-10T09:41:18;32.90;37.20
32187;DHT22;18686;53.084;8.872;2023-06-10T09:44:11;33.00;37.80
32187;DHT22;18686;53.084;8.872;2023-06-10T09:46:58;33.30;37.30
32187;DHT22;18686;53.084;8.872;2023-06-10T09:49:46;33.60;37.40
32187;DHT22;18686;53.084;8.872;2023-06-10T09:52:21;34.00;36.30
32187;DHT22;18686;53.084;8.872;2023-06-10T09:54:51;34.80;35.60
32187;DHT22;18686;53.084;8.872;2023-06-10T09:57:38;35.30;34.20
32187;DHT22;18686;53.084;8.872;2023-06-10T10:00:10;35.70;34.00
32187;DHT22;18686;53.084;8.872;2023-06-10T10:02:45;35.60;34.00
32187;DHT22;18686;53.084;8.872;2023-06-10T10:05:34;36.20;33.20
32187;DHT22;18686;53.084;8.872;2023-06-10T10:08:22;36.80;32.20
32187;DHT22;18686;53.084;8.872;2023-06-10T10:10:51;37.30;31.10
32187;DHT22;18686;53.084;8.872;2023-06-10T10:13:19;38.00;30.30
32187;DHT22;18686;53.084;8.872;2023-06-10T10:16:10;38.60;29.80
32187;DHT22;18686;53.084;8.872;2023-06-10T10:19:01;39.50;29.60
32187;DHT22;18686;53.084;8.872;2023-06-10T10:21:54;39.90;29.00
32187;DHT22;18686;53.084;8.872;2023-06-10T10:24:49;40.30;28.20
32187;DHT22;18686;53.084;8.872;2023-06-10T10:27:21;40.40;28.40
32187;DHT22;18686;53.084;8.872;2023-06-10T10:29:52;41.30;28.30
32187;DHT22;18686;53.084;8.872;2023-06-10T10:32:26;42.40;27.10
32187;DHT22;18686;53.084;8.872;2023-06-10T10:35:03;43.10;26.60
32187;DHT22;18686;53.084;8.872;2023-06-10T10:37:36;43.90;26.00
32187;DHT22;18686;53.084;8.872;2023-06-10T10:40:06;44.10;26.00
32187;DHT22;18686;53.084;8.872;2023-06-10T10:42:55;45.30;26.10
32187;DHT22;18686;53.084;8.872;2023-06-10T10:45:42;46.40;25.70
32187;DHT22;18686;53.084;8.872;2023-06-10T10:48:14;47.80;25.40
32187;DHT22;18686;53.084;8.872;2023-06-10T10:50:42;48.70;24.60
32187;DHT22;18686;53.084;8.872;2023-06-10T10:53:19;48.70;24.30
32187;DHT22;18686;53.084;8.872;2023-06-10T10:56:07;49.90;24.40
32187;DHT22;18686;53.084;8.872;2023-06-10T10:58:39;50.80;23.70
32187;DHT22;18686;53.084;8.872;2023-06-10T11:01:39;51.20;23.20
32187;DHT22;18686;53.084;8.872;2023-06-10T11:04:27;52.30;21.90
32187;DHT22;18686;53.084;8.872;2023-06-10T11:07:14;53.30;21.60
32187;DHT22;18686;53.084;8.872;2023-06-10T11:10:06;54.00;21.30
32187;DHT22;18686;53.084;8.872;2023-06-10T11:12:47;54.90;21.00
32187;DHT22;18686;53.084;8.872;2023-06-10T11:15:18;54.70;21.20
32187;DHT22;18686;53.084;8.872;2023-06-10T11:18:23;55.00;21.30
32187;DHT22;18686;53.084;8.872;2023-06-10T11:20:56;55.90;21.20
32187;DHT22;18686;53.084;8.872;2023-06-10T11:23:43;56.50;20.70
32187;DHT22;18686;53.084;8.872;2023-06-10T11:26:32;56.90;20.20
32187;DHT22;18686;53.084;8.872;2023-06-10T11:29:04;57.30;20.30
32187;DHT22;18686;53.084;8.872;2023-06-10T11:31:53;57.40;19.90
32187;DHT22;18686;53.084;8.872;2023-06-10T11:34:40;57.20;19.90
32187;DHT22;18686;53.084;8.872;2023-06-10T11:37:27;56.20;20.10
32187;DHT22;18686;53.084;8.872;2023-06-10T11:39:56;55.40;20.50
32187;DHT22;18686;53.084;8.872;2023-06-10T11:42:45;56.30;20.50
32187;DHT22;18686;53.084;8.872;2023-06-10T11:45:32;56.60;20.50
32187;DHT22;18686;53.084;8.872;2023-06-10T11:48:19;57.10;20.50
32187;DHT22;18686;53.084;8.872;2023-06-10T11:51:07;57.50;20.20
32187;DHT22;18686;53.084;8.872;2023-06-10T11:53:54;58.40;19.90
32187;DHT22;18686;53.084;8.872;2023-06-10T11:56:23;58.70;19.70
32187;DHT22;18686;53.084;8.872;2023-06-10T11:58:55;59.10;19.80
32187;DHT22;18686;53.084;8.872;2023-06-10T12:01:44;59.20;19.90
32187;DHT22;18686;53.084;8.872;2023-06-10T12:04:14;59.10;19.60
32187;DHT22;18686;53.084;8.872;2023-06-10T12:07:04;59.30;19.60
32187;DHT22;18686;53.084;8.872;2023-06-10T12:09:58;59.40;19.50
32187;DHT22;18686;53.084;8.872;2023-06-10T12:13:03;60.10;19.70
32187;DHT22;18686;53.084;8.872;2023-06-10T12:15:33;60.60;19.70
32187;DHT22;18686;53.084;8.872;2023-06-10T12:18:20;60.30;18.90
32187;DHT22;18686;53.084;8.872;2023-06-10T12:20:49;60.00;19.30
32187;DHT22;18686;53.084;8.872;2023-06-10T12:23:18;59.60;19.30
32187;DHT22;18686;53.084;8.872;2023-06-10T12:26:05;60.10;19.10
32187;DHT22;18686;53.084;8.872;2023-06-10T12:28:52;60.50;19.40
32187;DHT22;18686;53.084;8.872;2023-06-10T12:31:57;60.00;19.40
32187;DHT22;18686;53.084;8.872;2023-06-10T12:34:45;60.00;19.20
32187;DHT22;18686;53.084;8.872;2023-06-10T12:37:14;60.10;19.30
32187;DHT22;18686;53.084;8.872;2023-06-10T12:40:03;59.90;19.20
32187;DHT22;18686;53.084;8.872;2023-06-10T12:42:51;59.70;19.20
32187;DHT22;18686;53.084;8.872;2023-06-10T12:45:39;59.80;19.30
32187;DHT22;18686;53.084;8.872;2023-06-10T12:48:17;59.50;19.20
32187;DHT22;18686;53.084;8.872;2023-06-10T12:50:50;60.10;19.30
32187;DHT22;18686;53.084;8.872;2023-06-10T12:53:37;60.10;19.10
32187;DHT22;18686;53.084;8.872;2023-06-10T12:56:07;59.70;19.00
32187;DHT22;18686;53.084;8.872;2023-06-10T12:58:53;59.80;19.40
32187;DHT22;18686;53.084;8.872;2023-06-10T13:01:22;59.80;19.30
32187;DHT22;18686;53.084;8.872;2023-06-10T13:03:51;59.50;19.40
32187;DHT22;18686;53.084;8.872;2023-06-10T13:06:38;59.60;19.60
32187;DHT22;18686;53.084;8.872;2023-06-10T13:09:24;60.20;19.60
32187;DHT22;18686;53.084;8.872;2023-06-10T13:12:11;60.20;19.60
32187;DHT22;18686;53.084;8.872;2023-06-10T13:14:42;59.80;19.30
32187;DHT22;18686;53.084;8.872;2023-06-10T13:17:29;59.20;19.80
32187;DHT22;18686;53.084;8.872;2023-06-10T13:19:59;59.10;19.50
32187;DHT22;18686;53.084;8.872;2023-06-10T13:22:46;58.80;19.50
32187;DHT22;18686;53.084;8.872;2023-06-10T13:25:14;58.50;20.00
32187;DHT22;18686;53.084;8.872;2023-06-10T13:27:43;58.60;19.70
32187;DHT22;18686;53.084;8.872;2023-06-10T13:30:29;58.30;19.60
32187;DHT22;18686;53.084;8.872;2023-06-10T13:32:58;58.50;19.70
32187;DHT22;18686;53.084;8.872;2023-06-10T13:35:27;57.90;19.60
32187;DHT22;18686;53.084;8.872;2023-06-10T13:38:14;58.10;19.80
32187;DHT22;18686;53.084;8.872;2023-06-10T13:41:01;58.20;20.60
32187;DHT22;18686;53.084;8.872;2023-06-10T13:43:31;58.40;20.10
32187;DHT22;18686;53.084;8.872;2023-06-10T13:45:59;58.60;20.00
32187;DHT22;18686;53.084;8.872;2023-06-10T13:48:46;59.10;20.00
32187;DHT22;18686;53.084;8.872;2023-06-10T13:51:15;59.20;20.00
32187;DHT22;18686;53.084;8.872;2023-06-10T13:54:02;59.60;20.10
32187;DHT22;18686;53.084;8.872;2023-06-10T13:56:49;59.20;20.10
32187;DHT22;18686;53.084;8.872;2023-06-10T13:59:18;58.10;20.50
32187;DHT22;18686;53.084;8.872;2023-06-10T14:01:47;57.40;20.30
32187;DHT22;18686;53.084;8.872;2023-06-10T14:04:15;57.20;20.60
32187;DHT22;18686;53.084;8.872;2023-06-10T14:07:04;57.40;20.70
32187;DHT22;18686;53.084;8.872;2023-06-10T14:09:32;57.50;20.60
32187;DHT22;18686;53.084;8.872;2023-06-10T14:12:19;57.50;20.60
32187;DHT22;18686;53.084;8.872;2023-06-10T14:14:47;57.00;20.60
32187;DHT22;18686;53.084;8.872;2023-06-10T14:17:15;56.80;21.10
32187;DHT22;18686;53.084;8.872;2023-06-10T14:20:02;56.40;20.70
32187;DHT22;18686;53.084;8.872;2023-06-10T14:22:51;56.00;20.80
32187;DHT22;18686;53.084;8.872;2023-06-10T14:25:37;55.50;21.00
32187;DHT22;18686;53.084;8.872;2023-06-10T14:28:24;55.30;21.20
32187;DHT22;18686;53.084;8.872;2023-06-10T14:30:54;54.50;21.20
32187;DHT22;18686;53.084;8.872;2023-06-10T14:33:24;53.70;21.30
32187;DHT22;18686;53.084;8.872;2023-06-10T14:36:11;52.80;21.70
32187;DHT22;18686;53.084;8.872;2023-06-10T14:38:40;51.60;22.10
32187;DHT22;18686;53.084;8.872;2023-06-10T14:41:09;50.40;22.60
32187;DHT22;18686;53.084;8.872;2023-06-10T14:43:56;48.90;23.00
32187;DHT22;18686;53.084;8.872;2023-06-10T14:46:24;47.00;23.70
32187;DHT22;18686;53.084;8.872;2023-06-10T14:48:52;45.20;24.10
32187;DHT22;18686;53.084;8.872;2023-06-10T14:51:21;43.40;24.60
32187;DHT22;18686;53.084;8.872;2023-06-10T14:54:09;41.80;25.40
32187;DHT22;18686;53.084;8.872;2023-06-10T14:56:56;40.30;26.50
32187;DHT22;18686;53.084;8.872;2023-06-10T14:59:43;38.80;27.10
32187;DHT22;18686;53.084;8.872;2023-06-10T15:02:11;37.70;27.70
32187;DHT22;18686;53.084;8.872;2023-06-10T15:04:57;36.80;28.50
32187;DHT22;18686;53.084;8.872;2023-06-10T15:07:44;35.70;28.90
32187;DHT22;18686;53.084;8.872;2023-06-10T15:10:14;34.80;29.60
32187;DHT22;18686;53.084;8.872;2023-06-10T15:13:02;34.10;30.20
32187;DHT22;18686;53.084;8.872;2023-06-10T15:15:49;33.30;30.90
32187;DHT22;18686;53.084;8.872;2023-06-10T15:18:36;32.90;31.40
32187;DHT22;18686;53.084;8.872;2023-06-10T15:21:05;32.40;32.50
32187;DHT22;18686;53.084;8.872;2023-06-10T15:23:52;31.80;33.10
32187;DHT22;18686;53.084;8.872;2023-06-10T15:26:22;31.60;32.90
32187;DHT22;18686;53.084;8.872;2023-06-10T15:28:50;31.40;33.00
32187;DHT22;18686;53.084;8.872;2023-06-10T15:31:37;31.20;33.90
32187;DHT22;18686;53.084;8.872;2023-06-10T15:34:24;31.00;35.30
32187;DHT22;18686;53.084;8.872;2023-06-10T15:37:10;30.70;34.70
32187;DHT22;18686;53.084;8.872;2023-06-10T15:40:19;30.20;34.50
32187;DHT22;18686;53.084;8.872;2023-06-10T16:15:38;29.90;36.90
32187;DHT22;18686;53.084;8.872;2023-06-10T16:18:25;30.10;38.60
32187;DHT22;18686;53.084;8.872;2023-06-10T16:21:11;30.10;38.90
32187;DHT22;18686;53.084;8.872;2023-06-10T16:23:40;30.00;38.90
32187;DHT22;18686;53.084;8.872;2023-06-10T16:26:08;29.90;38.70
32187;DHT22;18686;53.084;8.872;2023-06-10T16:28:54;29.70;38.80
32187;DHT22;18686;53.084;8.872;2023-06-10T16:31:43;29.40;39.60
32187;DHT22;18686;53.084;8.872;2023-06-10T16:34:11;29.30;39.90
32187;DHT22;18686;53.084;8.872;2023-06-10T16:36:39;29.10;40.40
32187;DHT22;18686;53.084;8.872;2023-06-10T16:39:30;28.90;40.90
32187;DHT22;18686;53.084;8.872;2023-06-10T16:41:58;28.70;40.80
32187;DHT22;18686;53.084;8.872;2023-06-10T16:44:45;28.60;41.10
32187;DHT22;18686;53.084;8.872;2023-06-10T16:47:53;28.50;41.70
32187;DHT22;18686;53.084;8.872;2023-06-10T16:50:22;28.40;42.20
32187;DHT22;18686;53.084;8.872;2023-06-10T16:52:50;28.30;42.10
32187;DHT22;18686;53.084;8.872;2023-06-10T16:55:18;28.20;42.10
32187;DHT22;18686;53.084;8.872;2023-06-10T16:58:03;28.10;42.20
32187;DHT22;18686;53.084;8.872;2023-06-10T17:00:50;28.10;42.90
32187;DHT22;18686;53.084;8.872;2023-06-10T17:03:20;28.00;44.00
32187;DHT22;18686;53.084;8.872;2023-06-10T17:06:06;27.90;46.00
32187;DHT22;18686;53.084;8.872;2023-06-10T17:08:34;27.80;46.70
32187;DHT22;18686;53.084;8.872;2023-06-10T17:11:03;27.80;47.50
32187;DHT22;18686;53.084;8.872;2023-06-10T17:13:50;27.70;46.30